Time;durP1;ratioP1;P1;durP2;ratioP2;P2;SDS_P1;SDS_P2;PMS_P1;PMS_P2;Temp;Humidity;BMP_temperature;BMP_pressure;BME280_temperature;BME280_humidity;BME280_pressure;Samples;Min_cycle;Max_cycle;Signal;HPM_P1;HPM_P2
2022/07/08 00:00:52;;;;;;;;;;;14.90;99.90;;;;;;5048703;28;20015;-66
2022/07/08 00:03:18;;;;;;;;;;;14.90;99.90;;;;;;5066428;28;20073;-66
2022/07/08 00:05:44;;;;;;;;;;;14.90;99.90;;;;;;5048937;28;19913;-66
2022/07/08 00:08:10;;;;;;;;;;;14.80;99.90;;;;;;5045901;28;19916;-67
2022/07/08 00:10:35;;;;;;;;;;;14.90;99.90;;;;;;5046820;28;20119;-66
2022/07/08 00:13:01;;;;;;;;;;;14.90;99.90;;;;;;5049072;28;19913;-66
2022/07/08 00:15:26;;;;;;;;;;;14.90;99.90;;;;;;5066333;28;19908;-66
2022/07/08 00:17:52;;;;;;;;;;;14.80;99.90;;;;;;5048724;28;19966;-66
2022/07/08 00:20:18;;;;;;;;;;;14.90;99.90;;;;;;5066319;28;19924;-67
2022/07/08 00:22:43;;;;;;;;;;;14.90;99.90;;;;;;5048658;28;20309;-66
2022/07/08 00:25:09;;;;;;;;;;;14.90;99.90;;;;;;5066934;28;20003;-66
2022/07/08 00:27:34;;;;;;;;;;;14.90;99.90;;;;;;5063227;28;20598;-66
2022/07/08 00:30:00;;;;;;;;;;;14.90;99.90;;;;;;5066883;28;19982;-66
2022/07/08 00:32:25;;;;;;;;;;;14.90;99.90;;;;;;5057863;28;19909;-66
2022/07/08 00:34:51;;;;;;;;;;;14.80;99.90;;;;;;5070535;28;19915;-66
2022/07/08 00:37:17;;;;;;;;;;;14.70;99.90;;;;;;5052036;28;19908;-66
2022/07/08 00:39:42;;;;;;;;;;;14.80;99.90;;;;;;5070022;28;19958;-66
2022/07/08 00:42:07;;;;;;;;;;;14.80;99.90;;;;;;5070227;28;20213;-66
2022/07/08 00:44:33;;;;;;;;;;;14.80;99.90;;;;;;5070063;28;20279;-66
2022/07/08 00:46:59;;;;;;;;;;;14.70;99.90;;;;;;5070646;28;19908;-66
2022/07/08 00:49:24;;;;;;;;;;;14.80;99.90;;;;;;5069566;28;19909;-66
2022/07/08 00:51:50;;;;;;;;;;;14.70;99.90;;;;;;5052545;28;19912;-66
2022/07/08 00:54:18;;;;;;;;;;;14.70;99.90;;;;;;5069578;28;19912;-66
2022/07/08 00:56:43;;;;;;;;;;;14.70;99.90;;;;;;5066797;28;19997;-66
2022/07/08 00:59:09;;;;;;;;;;;14.70;99.90;;;;;;5070125;28;19924;-66
2022/07/08 01:01:35;;;;;;;;;;;14.70;99.90;;;;;;5069727;28;20319;-66
2022/07/08 01:04:01;;;;;;;;;;;14.60;99.90;;;;;;5052179;28;19941;-66
2022/07/08 01:06:27;;;;;;;;;;;14.60;99.90;;;;;;5069544;28;19909;-66
2022/07/08 01:08:52;;;;;;;;;;;14.60;99.90;;;;;;5070513;28;20031;-66
2022/07/08 01:11:18;;;;;;;;;;;14.60;99.90;;;;;;5049326;28;19916;-66
2022/07/08 01:13:43;;;;;;;;;;;14.60;99.90;;;;;;5069426;28;20360;-66
2022/07/08 01:16:09;;;;;;;;;;;14.70;99.90;;;;;;5069924;28;19955;-66
2022/07/08 01:18:35;;;;;;;;;;;14.70;99.90;;;;;;5051281;28;19952;-66
2022/07/08 01:21:00;;;;;;;;;;;14.60;99.90;;;;;;5069857;28;20393;-67
2022/07/08 01:23:26;;;;;;;;;;;14.60;99.90;;;;;;5049305;28;19915;-66
2022/07/08 01:25:52;;;;;;;;;;;14.70;99.90;;;;;;5051660;28;19908;-66
2022/07/08 01:28:18;;;;;;;;;;;14.60;99.90;;;;;;5069261;28;19951;-66
2022/07/08 01:30:44;;;;;;;;;;;14.60;99.90;;;;;;5069908;28;19999;-66
2022/07/08 01:33:09;;;;;;;;;;;14.60;99.90;;;;;;5069721;28;19995;-66
2022/07/08 01:35:35;;;;;;;;;;;14.50;99.90;;;;;;5050860;28;19919;-67
2022/07/08 01:38:01;;;;;;;;;;;14.50;99.90;;;;;;5069783;28;19909;-67
2022/07/08 01:40:27;;;;;;;;;;;14.50;99.90;;;;;;5067089;28;19913;-66
2022/07/08 01:42:52;;;;;;;;;;;14.60;99.90;;;;;;5051285;28;20043;-66
2022/07/08 01:45:18;;;;;;;;;;;14.60;99.90;;;;;;5068331;28;20542;-67
2022/07/08 01:47:43;;;;;;;;;;;14.50;99.90;;;;;;5068940;28;19915;-67
2022/07/08 01:50:09;;;;;;;;;;;14.50;99.90;;;;;;5069380;28;19908;-67
2022/07/08 01:52:35;;;;;;;;;;;14.50;99.90;;;;;;5068616;28;20390;-66
2022/07/08 01:55:00;;;;;;;;;;;14.60;99.90;;;;;;5069312;28;19913;-66
2022/07/08 01:57:26;;;;;;;;;;;14.60;99.90;;;;;;5050569;28;20348;-66
2022/07/08 01:59:51;;;;;;;;;;;14.60;99.90;;;;;;5050962;28;20461;-66
2022/07/08 02:02:18;;;;;;;;;;;14.60;99.90;;;;;;5068546;28;20276;-66
2022/07/08 02:04:43;;;;;;;;;;;14.60;99.90;;;;;;5066956;28;19909;-66
2022/07/08 02:07:09;;;;;;;;;;;14.60;99.90;;;;;;5069431;28;19999;-66
2022/07/08 02:09:35;;;;;;;;;;;14.60;99.90;;;;;;5068277;28;20264;-66
2022/07/08 02:12:20;;;;;;;;;;;14.50;99.90;;;;;;5067167;28;19913;-66
2022/07/08 02:14:49;;;;;;;;;;;14.50;99.90;;;;;;5064909;28;19915;-66
2022/07/08 02:17:16;;;;;;;;;;;14.50;99.90;;;;;;5068095;28;19908;-66
2022/07/08 02:19:41;;;;;;;;;;;14.50;99.90;;;;;;5068351;28;19920;-66
2022/07/08 02:22:07;;;;;;;;;;;14.50;99.90;;;;;;5068660;28;19962;-66
2022/07/08 02:24:33;;;;;;;;;;;14.50;99.90;;;;;;5050484;28;19919;-66
2022/07/08 02:26:59;;;;;;;;;;;14.60;99.90;;;;;;5068699;28;20264;-66
2022/07/08 02:29:24;;;;;;;;;;;14.50;99.90;;;;;;5050229;28;19966;-66
2022/07/08 02:31:50;;;;;;;;;;;14.50;99.90;;;;;;5050617;28;19940;-66
2022/07/08 02:34:15;;;;;;;;;;;14.50;99.90;;;;;;5067991;28;19916;-66
2022/07/08 02:36:41;;;;;;;;;;;14.50;99.90;;;;;;5067737;28;19986;-66
2022/07/08 02:39:06;;;;;;;;;;;14.50;99.90;;;;;;5068365;28;19916;-66
2022/07/08 02:41:32;;;;;;;;;;;14.50;99.90;;;;;;5065934;28;20007;-67
2022/07/08 02:43:57;;;;;;;;;;;14.40;99.90;;;;;;5068355;28;20394;-66
2022/07/08 02:46:23;;;;;;;;;;;14.50;99.90;;;;;;5049636;28;19908;-66
2022/07/08 02:48:48;;;;;;;;;;;14.40;99.90;;;;;;5049852;28;19966;-66
2022/07/08 02:51:14;;;;;;;;;;;14.50;99.90;;;;;;5068240;28;19908;-66
2022/07/08 02:53:39;;;;;;;;;;;14.50;99.90;;;;;;5067434;28;19996;-66
2022/07/08 02:56:05;;;;;;;;;;;14.50;99.90;;;;;;5065619;28;20387;-66
2022/07/08 02:58:30;;;;;;;;;;;14.40;99.90;;;;;;5066170;28;19912;-67
2022/07/08 03:00:56;;;;;;;;;;;14.40;99.90;;;;;;5067671;28;19928;-66
2022/07/08 03:03:22;;;;;;;;;;;14.40;99.90;;;;;;5067306;28;19935;-64
2022/07/08 03:05:47;;;;;;;;;;;14.40;99.90;;;;;;5067896;28;20448;-66
2022/07/08 03:08:13;;;;;;;;;;;14.40;99.90;;;;;;5049558;28;19943;-66
2022/07/08 03:10:38;;;;;;;;;;;14.40;99.90;;;;;;5065222;28;19916;-66
2022/07/08 03:13:04;;;;;;;;;;;14.40;99.90;;;;;;5067815;28;20160;-67
2022/07/08 03:15:29;;;;;;;;;;;14.40;99.90;;;;;;5067115;28;20328;-66
2022/07/08 03:17:55;;;;;;;;;;;14.50;99.90;;;;;;5067225;28;19967;-66
2022/07/08 03:20:20;;;;;;;;;;;14.40;99.90;;;;;;5064853;28;19923;-66
2022/07/08 03:22:46;;;;;;;;;;;14.40;99.90;;;;;;5067336;28;19959;-66
2022/07/08 03:25:11;;;;;;;;;;;14.40;99.90;;;;;;5066970;28;19954;-66
2022/07/08 03:27:37;;;;;;;;;;;14.40;99.90;;;;;;5062826;28;19913;-66
2022/07/08 03:30:03;;;;;;;;;;;14.30;99.90;;;;;;5067073;28;19917;-66
2022/07/08 03:32:28;;;;;;;;;;;14.40;99.90;;;;;;5066335;28;19912;-66
2022/07/08 03:34:54;;;;;;;;;;;14.40;99.90;;;;;;5066564;28;19915;-66
2022/07/08 03:37:19;;;;;;;;;;;14.40;99.90;;;;;;5066115;28;20082;-64
2022/07/08 03:39:45;;;;;;;;;;;14.40;99.90;;;;;;5064789;28;19916;-66
2022/07/08 03:42:10;;;;;;;;;;;14.30;99.90;;;;;;5065627;28;20390;-66
2022/07/08 03:44:36;;;;;;;;;;;14.30;99.90;;;;;;5062595;28;19908;-66
2022/07/08 03:47:02;;;;;;;;;;;14.30;99.90;;;;;;5065117;28;20365;-66
2022/07/08 03:49:27;;;;;;;;;;;14.20;99.90;;;;;;5066354;28;19908;-66
2022/07/08 03:51:53;;;;;;;;;;;14.30;99.90;;;;;;5067140;28;19917;-66
2022/07/08 03:54:19;;;;;;;;;;;14.30;99.90;;;;;;5067081;28;20057;-66
2022/07/08 03:56:44;;;;;;;;;;;14.30;99.90;;;;;;5046714;28;20265;-66
2022/07/08 03:59:10;;;;;;;;;;;14.30;99.90;;;;;;5066557;28;19917;-66
2022/07/08 04:01:35;;;;;;;;;;;14.30;99.90;;;;;;5046121;28;19929;-66
2022/07/08 04:04:01;;;;;;;;;;;14.30;99.90;;;;;;5066680;28;19984;-66
2022/07/08 04:06:26;;;;;;;;;;;14.30;99.90;;;;;;5066127;28;19934;-66
2022/07/08 04:08:52;;;;;;;;;;;14.30;99.90;;;;;;5049282;28;19908;-66
2022/07/08 04:11:17;;;;;;;;;;;14.30;99.90;;;;;;5065022;28;19915;-67
2022/07/08 04:13:43;;;;;;;;;;;14.30;99.90;;;;;;5064853;28;20003;-67
2022/07/08 04:16:12;;;;;;;;;;;14.30;99.90;;;;;;5067362;28;19920;-67
2022/07/08 04:18:38;;;;;;;;;;;14.30;99.90;;;;;;5061785;28;20019;-66
2022/07/08 04:21:05;;;;;;;;;;;14.40;99.90;;;;;;5064895;28;19917;-66
2022/07/08 04:23:30;;;;;;;;;;;14.40;99.90;;;;;;5064119;28;19921;-66
2022/07/08 04:25:56;;;;;;;;;;;14.40;99.90;;;;;;5064356;28;19909;-66
2022/07/08 04:28:21;;;;;;;;;;;14.50;99.90;;;;;;5062504;28;19934;-66
2022/07/08 04:30:47;;;;;;;;;;;14.50;99.90;;;;;;5065734;28;19924;-66
2022/07/08 04:33:12;;;;;;;;;;;14.60;99.90;;;;;;5065346;28;20434;-66
2022/07/08 04:35:38;;;;;;;;;;;14.60;99.90;;;;;;5064970;28;19927;-66
2022/07/08 04:38:03;;;;;;;;;;;14.60;99.90;;;;;;5065925;28;19908;-66
2022/07/08 04:40:29;;;;;;;;;;;14.60;99.90;;;;;;5063433;28;19912;-66
2022/07/08 04:42:55;;;;;;;;;;;14.50;99.90;;;;;;5062991;28;19916;-66
2022/07/08 04:45:21;;;;;;;;;;;14.60;99.90;;;;;;5064992;28;19908;-67
2022/07/08 04:47:47;;;;;;;;;;;14.60;99.90;;;;;;5064939;28;20364;-66
2022/07/08 04:50:12;;;;;;;;;;;14.50;99.90;;;;;;5064064;28;19912;-66
2022/07/08 04:52:38;;;;;;;;;;;14.50;99.90;;;;;;5064879;28;19969;-66
2022/07/08 04:55:04;;;;;;;;;;;14.50;99.90;;;;;;5064954;28;20040;-67
2022/07/08 04:57:32;;;;;;;;;;;14.60;99.90;;;;;;5065896;28;19920;-66
2022/07/08 05:00:01;;;;;;;;;;;14.60;99.90;;;;;;5044745;28;19924;-66
2022/07/08 05:02:26;;;;;;;;;;;14.70;99.90;;;;;;5064628;28;20393;-66
2022/07/08 05:04:52;;;;;;;;;;;14.70;99.90;;;;;;5065368;28;19915;-66
2022/07/08 05:07:17;;;;;;;;;;;14.80;99.90;;;;;;5065568;28;20359;-66
2022/07/08 05:09:43;;;;;;;;;;;14.80;99.90;;;;;;5044378;28;19912;-66
2022/07/08 05:12:09;;;;;;;;;;;14.80;99.90;;;;;;5045330;28;20276;-66
2022/07/08 05:14:34;;;;;;;;;;;14.80;99.90;;;;;;5044576;28;19913;-66
2022/07/08 05:17:00;;;;;;;;;;;14.80;99.90;;;;;;5064166;28;20425;-66
2022/07/08 05:19:25;;;;;;;;;;;14.90;99.90;;;;;;5065978;28;19913;-66
2022/07/08 05:21:51;;;;;;;;;;;15.00;99.90;;;;;;5067525;28;20030;-66
2022/07/08 05:24:16;;;;;;;;;;;14.90;99.90;;;;;;5068566;28;19916;-66
2022/07/08 05:26:42;;;;;;;;;;;14.90;99.90;;;;;;5067685;28;19935;-66
2022/07/08 05:29:07;;;;;;;;;;;15.10;99.90;;;;;;5067968;28;19915;-66
2022/07/08 05:31:33;;;;;;;;;;;15.20;99.90;;;;;;5064683;28;19938;-66
2022/07/08 05:33:58;;;;;;;;;;;15.20;99.90;;;;;;5068236;28;19965;-66
2022/07/08 05:36:24;;;;;;;;;;;15.30;99.90;;;;;;5050763;28;19909;-66
2022/07/08 05:38:49;;;;;;;;;;;15.30;99.90;;;;;;5048999;28;19917;-66
2022/07/08 05:41:15;;;;;;;;;;;15.40;99.90;;;;;;5046657;28;19920;-66
2022/07/08 05:43:41;;;;;;;;;;;15.70;99.90;;;;;;5067680;28;19908;-66
2022/07/08 05:46:06;;;;;;;;;;;15.80;99.90;;;;;;5066832;28;19938;-66
2022/07/08 05:48:32;;;;;;;;;;;15.70;99.90;;;;;;5067315;28;19912;-66
2022/07/08 05:50:57;;;;;;;;;;;15.80;99.90;;;;;;5067972;28;19917;-66
2022/07/08 05:53:23;;;;;;;;;;;15.90;99.90;;;;;;5068035;28;19913;-66
2022/07/08 05:55:48;;;;;;;;;;;15.80;99.90;;;;;;5065882;28;19917;-66
2022/07/08 05:58:14;;;;;;;;;;;15.70;99.90;;;;;;5068683;28;20076;-66
2022/07/08 06:00:39;;;;;;;;;;;15.60;99.90;;;;;;5047028;28;19940;-66
2022/07/08 06:03:05;;;;;;;;;;;15.70;99.90;;;;;;5066121;28;20315;-66
2022/07/08 06:05:31;;;;;;;;;;;15.60;99.90;;;;;;5049658;28;20268;-66
2022/07/08 06:07:57;;;;;;;;;;;15.60;99.90;;;;;;5049815;28;19916;-63
2022/07/08 06:10:22;;;;;;;;;;;15.70;99.90;;;;;;5067617;28;19920;-66
2022/07/08 06:12:49;;;;;;;;;;;15.70;99.90;;;;;;5066917;28;19924;-66
2022/07/08 06:15:14;;;;;;;;;;;15.80;99.90;;;;;;5068491;28;20313;-66
2022/07/08 06:17:41;;;;;;;;;;;15.70;99.90;;;;;;5069486;28;19915;-66
2022/07/08 06:20:07;;;;;;;;;;;15.60;99.90;;;;;;5062732;28;19930;-66
2022/07/08 06:22:33;;;;;;;;;;;15.60;99.90;;;;;;5065191;28;19913;-66
2022/07/08 06:24:59;;;;;;;;;;;15.70;99.90;;;;;;5067936;28;19927;-63
2022/07/08 06:27:25;;;;;;;;;;;15.80;99.90;;;;;;5064160;28;19912;-63
2022/07/08 06:29:50;;;;;;;;;;;15.80;99.90;;;;;;5054886;28;19912;-63
2022/07/08 06:32:16;;;;;;;;;;;15.80;99.90;;;;;;5048683;28;19932;-62
2022/07/08 06:34:41;;;;;;;;;;;15.80;99.90;;;;;;5061583;28;20027;-63
2022/07/08 06:37:07;;;;;;;;;;;15.70;99.90;;;;;;5065877;28;20355;-63
2022/07/08 06:39:32;;;;;;;;;;;16.00;99.90;;;;;;5050741;28;19909;-63
2022/07/08 06:41:58;;;;;;;;;;;16.30;99.90;;;;;;5049856;28;19995;-63
2022/07/08 06:44:23;;;;;;;;;;;16.50;99.90;;;;;;5069520;28;19923;-63
2022/07/08 06:46:49;;;;;;;;;;;16.30;99.90;;;;;;5069055;28;19912;-63
2022/07/08 06:49:14;;;;;;;;;;;16.20;99.90;;;;;;5069457;28;19950;-63
2022/07/08 06:51:40;;;;;;;;;;;16.20;99.90;;;;;;5068925;28;19947;-63
2022/07/08 06:56:49;;;;;;;;;;;16.60;99.90;;;;;;5068744;28;19914;-65
2022/07/08 06:59:15;;;;;;;;;;;16.80;99.90;;;;;;5069038;28;19924;-64
2022/07/08 07:01:40;;;;;;;;;;;16.80;99.90;;;;;;5068873;28;19924;-64
2022/07/08 07:04:06;;;;;;;;;;;16.80;99.90;;;;;;5069342;28;20011;-64
2022/07/08 07:06:31;;;;;;;;;;;17.30;99.90;;;;;;5068581;28;19908;-65
2022/07/08 07:08:57;;;;;;;;;;;17.40;99.90;;;;;;5069627;28;20419;-66
2022/07/08 07:11:22;;;;;;;;;;;17.30;99.90;;;;;;5061768;28;20411;-67
2022/07/08 07:13:48;;;;;;;;;;;17.20;99.90;;;;;;5050542;28;19966;-64
2022/07/08 07:16:14;;;;;;;;;;;17.00;99.90;;;;;;5069518;28;20261;-66
2022/07/08 07:18:40;;;;;;;;;;;17.10;99.90;;;;;;5069592;28;20281;-65
2022/07/08 07:21:05;;;;;;;;;;;17.10;99.90;;;;;;5051148;28;19970;-66
2022/07/08 07:23:31;;;;;;;;;;;17.10;99.90;;;;;;5069756;28;19947;-66
2022/07/08 07:25:57;;;;;;;;;;;17.10;99.90;;;;;;5068525;28;20329;-66
2022/07/08 07:28:23;;;;;;;;;;;16.80;99.90;;;;;;5068788;28;19976;-65
2022/07/08 07:30:49;;;;;;;;;;;16.40;99.90;;;;;;5051199;28;20432;-63
2022/07/08 07:33:14;;;;;;;;;;;16.20;99.90;;;;;;5069269;28;19909;-66
2022/07/08 07:35:40;;;;;;;;;;;16.00;99.90;;;;;;5066588;28;20406;-67
2022/07/08 07:38:05;;;;;;;;;;;16.00;99.90;;;;;;5068870;28;19966;-65
2022/07/08 07:40:32;;;;;;;;;;;16.20;99.90;;;;;;5067096;28;20240;-66
2022/07/08 07:42:57;;;;;;;;;;;16.40;99.90;;;;;;5067901;28;20353;-64
2022/07/08 07:45:23;;;;;;;;;;;16.70;99.90;;;;;;5068274;28;20050;-63
2022/07/08 07:47:48;;;;;;;;;;;16.80;99.90;;;;;;5067620;28;19912;-67
2022/07/08 07:50:14;;;;;;;;;;;17.00;99.90;;;;;;5068310;28;19920;-67
2022/07/08 07:52:39;;;;;;;;;;;17.20;99.90;;;;;;5067613;28;19919;-67
2022/07/08 07:55:06;;;;;;;;;;;17.50;99.90;;;;;;5066817;28;19951;-67
2022/07/08 07:57:31;;;;;;;;;;;17.60;99.90;;;;;;5063401;28;19924;-67
2022/07/08 07:59:57;;;;;;;;;;;17.80;99.90;;;;;;5066715;28;19925;-67
2022/07/08 08:02:24;;;;;;;;;;;17.90;99.90;;;;;;5062464;28;20305;-67
2022/07/08 08:04:50;;;;;;;;;;;17.90;99.90;;;;;;5065475;28;20401;-67
2022/07/08 08:07:15;;;;;;;;;;;17.80;99.90;;;;;;5067165;28;19999;-67
2022/07/08 08:09:41;;;;;;;;;;;18.00;99.90;;;;;;5066179;28;19931;-65
2022/07/08 08:12:06;;;;;;;;;;;17.80;99.90;;;;;;5062887;28;19990;-66
2022/07/08 08:14:32;;;;;;;;;;;17.60;99.90;;;;;;5066216;28;19922;-66
2022/07/08 08:16:57;;;;;;;;;;;17.90;99.90;;;;;;5043478;28;20676;-63
2022/07/08 08:19:23;;;;;;;;;;;18.10;99.90;;;;;;5066313;28;19966;-67
2022/07/08 08:21:48;;;;;;;;;;;18.50;99.90;;;;;;5065826;28;19956;-67
2022/07/08 08:24:14;;;;;;;;;;;18.10;99.90;;;;;;5047858;28;20403;-67
2022/07/08 08:26:39;;;;;;;;;;;17.60;99.90;;;;;;5063650;28;19959;-67
2022/07/08 08:29:05;;;;;;;;;;;17.70;99.90;;;;;;5066152;28;19913;-67
2022/07/08 08:31:30;;;;;;;;;;;18.20;99.90;;;;;;5046478;28;20546;-67
2022/07/08 08:33:56;;;;;;;;;;;18.40;99.90;;;;;;5047614;28;20398;-66
2022/07/08 08:36:23;;;;;;;;;;;18.70;99.90;;;;;;5067289;28;19963;-66
2022/07/08 08:38:50;;;;;;;;;;;19.20;99.90;;;;;;5064831;28;20307;-66
2022/07/08 08:41:15;;;;;;;;;;;19.50;99.90;;;;;;5062197;28;20031;-66
2022/07/08 08:43:41;;;;;;;;;;;19.70;99.90;;;;;;5067020;28;20395;-66
2022/07/08 08:46:07;;;;;;;;;;;20.20;99.90;;;;;;5068324;28;19951;-66
2022/07/08 08:48:38;;;;;;;;;;;20.40;99.90;;;;;;5064710;28;19944;-66
2022/07/08 08:51:06;;;;;;;;;;;20.80;99.30;;;;;;5065839;28;20382;-66
2022/07/08 08:53:53;;;;;;;;;;;21.20;98.80;;;;;;5063622;28;19919;-67
2022/07/08 08:56:19;;;;;;;;;;;21.00;99.20;;;;;;5072025;28;19948;-67
2022/07/08 08:58:48;;;;;;;;;;;21.40;98.00;;;;;;5061263;28;19940;-67
2022/07/08 09:01:14;;;;;;;;;;;21.40;98.20;;;;;;5066010;28;19917;-67
2022/07/08 09:03:40;;;;;;;;;;;21.90;97.80;;;;;;5070743;28;19969;-67
2022/07/08 09:06:05;;;;;;;;;;;22.40;97.30;;;;;;5050013;28;20010;-67
2022/07/08 09:08:31;;;;;;;;;;;23.20;95.40;;;;;;5071963;28;19928;-67
2022/07/08 09:10:57;;;;;;;;;;;22.50;95.80;;;;;;5065181;28;20264;-67
2022/07/08 09:13:26;;;;;;;;;;;22.00;95.90;;;;;;5069661;28;19920;-67
2022/07/08 09:15:57;;;;;;;;;;;21.90;96.10;;;;;;5069675;28;19920;-67
2022/07/08 09:18:29;;;;;;;;;;;21.90;96.10;;;;;;5061231;28;19916;-67
2022/07/08 09:20:55;;;;;;;;;;;21.90;96.40;;;;;;5070557;28;20280;-67
2022/07/08 09:23:22;;;;;;;;;;;22.10;95.60;;;;;;5071342;28;19920;-67
2022/07/08 09:25:49;;;;;;;;;;;21.40;96.30;;;;;;5051942;28;20383;-67
2022/07/08 09:28:15;;;;;;;;;;;21.80;96.30;;;;;;5069209;28;19913;-68
2022/07/08 09:30:42;;;;;;;;;;;22.40;95.30;;;;;;5054334;28;20000;-67
2022/07/08 09:33:08;;;;;;;;;;;22.80;95.40;;;;;;5066578;28;19916;-68
2022/07/08 09:35:35;;;;;;;;;;;22.50;95.50;;;;;;5067847;28;20316;-67
2022/07/08 09:38:01;;;;;;;;;;;22.50;95.30;;;;;;5040705;28;20011;-67
2022/07/08 09:40:27;;;;;;;;;;;22.30;94.80;;;;;;5060060;28;20069;-67
2022/07/08 09:42:52;;;;;;;;;;;22.50;94.10;;;;;;5065640;28;19920;-67
2022/07/08 09:45:18;;;;;;;;;;;23.40;94.50;;;;;;5068911;28;20031;-67
2022/07/08 09:47:43;;;;;;;;;;;23.50;93.00;;;;;;5061845;28;19947;-67
2022/07/08 09:50:09;;;;;;;;;;;23.20;93.80;;;;;;5063017;28;19944;-67
2022/07/08 09:52:34;;;;;;;;;;;23.00;94.30;;;;;;5067246;28;19913;-67
2022/07/08 09:55:01;;;;;;;;;;;22.20;94.50;;;;;;5065681;28;19939;-67
2022/07/08 09:57:28;;;;;;;;;;;22.30;95.10;;;;;;5049666;28;19912;-67
2022/07/08 09:59:54;;;;;;;;;;;22.90;94.80;;;;;;5066254;28;20015;-67
2022/07/08 10:02:20;;;;;;;;;;;22.80;94.50;;;;;;5048279;28;19925;-68
2022/07/08 10:04:46;;;;;;;;;;;22.90;94.90;;;;;;5037086;28;19924;-67
2022/07/08 10:07:11;;;;;;;;;;;22.70;94.40;;;;;;5067210;28;19924;-67
2022/07/08 10:09:37;;;;;;;;;;;22.50;95.70;;;;;;5063773;28;19924;-68
2022/07/08 10:12:04;;;;;;;;;;;22.50;95.60;;;;;;5045626;28;19917;-67
2022/07/08 10:14:30;;;;;;;;;;;22.20;95.10;;;;;;5067038;28;19917;-67
2022/07/08 10:16:57;;;;;;;;;;;22.80;95.00;;;;;;5066512;28;20521;-67
2022/07/08 10:19:28;;;;;;;;;;;23.80;94.50;;;;;;5063173;28;19927;-68
2022/07/08 10:21:56;;;;;;;;;;;25.10;93.50;;;;;;5064733;28;19988;-67
2022/07/08 10:24:24;;;;;;;;;;;26.00;91.80;;;;;;5066796;28;19954;-67
2022/07/08 10:26:50;;;;;;;;;;;25.60;90.00;;;;;;5064510;28;19938;-67
2022/07/08 10:29:15;;;;;;;;;;;25.80;91.10;;;;;;5049444;28;19916;-67
2022/07/08 10:31:43;;;;;;;;;;;26.60;89.30;;;;;;5067298;28;19916;-67
2022/07/08 10:34:10;;;;;;;;;;;25.70;89.70;;;;;;5063776;28;19923;-68
2022/07/08 10:36:49;;;;;;;;;;;25.60;89.30;;;;;;5067032;28;20011;-67
2022/07/08 10:39:25;;;;;;;;;;;24.90;90.50;;;;;;5065685;28;19912;-67
2022/07/08 10:42:07;;;;;;;;;;;24.90;90.90;;;;;;5066508;28;19916;-67
2022/07/08 10:44:45;;;;;;;;;;;24.50;91.30;;;;;;5065780;28;19916;-68
2022/07/08 10:47:14;;;;;;;;;;;24.40;92.40;;;;;;5066777;28;19912;-68
2022/07/08 10:49:40;;;;;;;;;;;24.20;91.40;;;;;;5064387;28;19920;-68
2022/07/08 10:52:06;;;;;;;;;;;24.40;91.30;;;;;;5048261;28;20008;-65
2022/07/08 10:54:36;;;;;;;;;;;24.70;92.10;;;;;;5066594;28;20400;-64
2022/07/08 10:57:06;;;;;;;;;;;24.40;92.00;;;;;;5049885;28;19912;-68
2022/07/08 10:59:32;;;;;;;;;;;24.60;91.20;;;;;;5062887;28;20639;-68
2022/07/08 11:02:00;;;;;;;;;;;24.90;91.10;;;;;;5062274;28;19920;-64
2022/07/08 11:04:26;;;;;;;;;;;25.40;90.30;;;;;;5065448;28;19923;-64
2022/07/08 11:06:51;;;;;;;;;;;25.20;91.10;;;;;;5066414;28;19908;-68
2022/07/08 11:09:17;;;;;;;;;;;25.40;90.50;;;;;;5065600;28;19913;-68
2022/07/08 11:11:44;;;;;;;;;;;25.50;90.70;;;;;;5064685;28;19913;-68
2022/07/08 11:14:10;;;;;;;;;;;25.50;91.10;;;;;;5065922;28;19924;-68
2022/07/08 11:16:36;;;;;;;;;;;25.20;90.60;;;;;;5063518;28;19997;-68
2022/07/08 11:19:04;;;;;;;;;;;25.00;90.80;;;;;;5064445;28;19939;-68
2022/07/08 11:21:30;;;;;;;;;;;24.70;90.60;;;;;;5065207;28;20077;-68
2022/07/08 11:23:56;;;;;;;;;;;23.80;91.80;;;;;;5046562;28;19964;-68
2022/07/08 11:26:22;;;;;;;;;;;24.40;91.50;;;;;;5065901;28;19912;-68
2022/07/08 11:28:47;;;;;;;;;;;24.40;91.70;;;;;;5046569;28;20406;-68
2022/07/08 11:31:26;;;;;;;;;;;23.80;91.40;;;;;;5047099;28;19964;-68
2022/07/08 11:33:51;;;;;;;;;;;23.90;92.00;;;;;;5062699;28;19977;-68
2022/07/08 11:36:17;;;;;;;;;;;23.70;91.60;;;;;;5062618;28;19916;-68
2022/07/08 11:38:44;;;;;;;;;;;23.70;92.40;;;;;;5064728;28;20467;-68
2022/07/08 11:41:09;;;;;;;;;;;23.30;92.50;;;;;;5062545;28;19920;-68
2022/07/08 11:43:35;;;;;;;;;;;23.50;93.00;;;;;;5063802;28;20260;-68
2022/07/08 11:46:00;;;;;;;;;;;23.40;92.80;;;;;;5064925;28;19962;-68
2022/07/08 11:48:36;;;;;;;;;;;23.40;93.00;;;;;;5065251;28;19916;-68
2022/07/08 11:51:02;;;;;;;;;;;23.50;92.80;;;;;;5057591;28;19916;-65
2022/07/08 11:53:27;;;;;;;;;;;23.70;93.00;;;;;;5063985;28;20031;-65
2022/07/08 11:55:53;;;;;;;;;;;23.90;92.30;;;;;;5044560;28;19927;-65
2022/07/08 11:58:24;;;;;;;;;;;24.00;92.60;;;;;;5063345;28;19935;-66
2022/07/08 12:00:50;;;;;;;;;;;23.40;93.50;;;;;;5045462;28;19924;-66
2022/07/08 12:03:15;;;;;;;;;;;22.70;95.30;;;;;;5028465;28;19932;-64
2022/07/08 12:05:41;;;;;;;;;;;22.70;95.50;;;;;;5041117;28;19913;-64
2022/07/08 12:08:13;;;;;;;;;;;23.30;94.70;;;;;;5048963;28;20315;-67
2022/07/08 12:10:38;;;;;;;;;;;23.60;94.10;;;;;;5043095;28;19913;-68
2022/07/08 12:13:04;;;;;;;;;;;23.70;94.60;;;;;;5041130;28;19913;-65
2022/07/08 12:15:33;;;;;;;;;;;23.50;94.40;;;;;;5027058;28;19920;-65
2022/07/08 12:17:59;;;;;;;;;;;23.20;94.50;;;;;;5027293;28;19909;-65
2022/07/08 12:20:34;;;;;;;;;;;23.10;94.80;;;;;;5023373;28;20003;-66
2022/07/08 12:23:00;;;;;;;;;;;23.30;94.60;;;;;;5038480;28;19921;-66
2022/07/08 12:25:25;;;;;;;;;;;23.80;94.20;;;;;;5042382;28;19994;-65
2022/07/08 12:27:58;;;;;;;;;;;24.00;93.80;;;;;;5025118;28;19934;-66
2022/07/08 12:30:25;;;;;;;;;;;23.90;94.10;;;;;;5046405;28;19924;-66
2022/07/08 12:32:51;;;;;;;;;;;23.90;93.80;;;;;;5030612;28;20011;-66
2022/07/08 12:35:16;;;;;;;;;;;24.30;93.60;;;;;;5047208;28;19999;-66
2022/07/08 12:37:42;;;;;;;;;;;25.10;93.00;;;;;;5049492;28;20004;-67
2022/07/08 12:40:20;;;;;;;;;;;25.90;92.50;;;;;;5048800;28;19917;-67
2022/07/08 12:43:01;;;;;;;;;;;26.00;92.10;;;;;;5044166;28;19916;-65
2022/07/08 12:45:30;;;;;;;;;;;26.40;92.30;;;;;;5048878;28;20487;-65
2022/07/08 12:47:59;;;;;;;;;;;27.00;90.50;;;;;;5049555;28;19913;-64
2022/07/08 12:50:25;;;;;;;;;;;25.80;91.40;;;;;;5045004;28;20349;-64
2022/07/08 12:52:51;;;;;;;;;;;25.50;92.00;;;;;;5022450;28;20344;-64
2022/07/08 12:55:16;;;;;;;;;;;25.30;92.40;;;;;;5027940;28;19963;-64
2022/07/08 12:57:42;;;;;;;;;;;24.60;92.90;;;;;;5051035;28;19966;-64
2022/07/08 13:00:08;;;;;;;;;;;25.20;92.80;;;;;;5067403;28;19927;-64
2022/07/08 13:02:34;;;;;;;;;;;26.30;92.00;;;;;;5070410;28;19945;-64
2022/07/08 13:04:59;;;;;;;;;;;26.80;91.10;;;;;;5071198;28;19991;-64
2022/07/08 13:07:25;;;;;;;;;;;26.10;91.10;;;;;;5071322;28;19923;-64
2022/07/08 13:09:50;;;;;;;;;;;26.20;91.10;;;;;;5069752;28;19921;-64
2022/07/08 13:12:16;;;;;;;;;;;25.40;91.70;;;;;;5068374;28;20410;-64
2022/07/08 13:14:41;;;;;;;;;;;25.20;92.70;;;;;;5052567;28;19955;-64
2022/07/08 13:17:07;;;;;;;;;;;25.20;92.00;;;;;;5047385;28;19963;-65
2022/07/08 13:19:32;;;;;;;;;;;25.20;91.90;;;;;;5070067;28;19919;-64
2022/07/08 13:22:00;;;;;;;;;;;24.90;93.00;;;;;;5071153;28;20099;-64
2022/07/08 13:24:25;;;;;;;;;;;24.70;92.90;;;;;;5070909;28;19916;-64
2022/07/08 13:26:51;;;;;;;;;;;25.10;93.20;;;;;;5070541;28;19930;-64
2022/07/08 13:29:16;;;;;;;;;;;25.00;93.10;;;;;;5049222;28;20632;-64
2022/07/08 13:31:42;;;;;;;;;;;25.00;93.30;;;;;;5065715;28;19916;-64
2022/07/08 13:34:07;;;;;;;;;;;25.90;92.90;;;;;;5070794;28;19916;-64
2022/07/08 13:36:33;;;;;;;;;;;26.00;92.00;;;;;;5053456;28;19909;-65
2022/07/08 13:38:58;;;;;;;;;;;26.10;92.10;;;;;;5068266;28;20294;-64
2022/07/08 13:41:29;;;;;;;;;;;25.90;92.30;;;;;;5067682;28;19916;-64
2022/07/08 13:43:58;;;;;;;;;;;25.50;92.80;;;;;;5068988;28;20431;-64
2022/07/08 13:46:24;;;;;;;;;;;26.40;92.00;;;;;;5070130;28;20014;-64
2022/07/08 13:48:51;;;;;;;;;;;27.20;91.70;;;;;;5062591;28;19960;-64
2022/07/08 13:51:16;;;;;;;;;;;26.80;91.60;;;;;;5070286;28;19919;-64
2022/07/08 13:53:42;;;;;;;;;;;26.40;91.20;;;;;;5065728;28;20343;-64
2022/07/08 13:56:08;;;;;;;;;;;25.70;92.10;;;;;;5052391;28;20361;-64
2022/07/08 13:58:33;;;;;;;;;;;25.50;92.60;;;;;;5051687;28;20288;-65
2022/07/08 14:00:59;;;;;;;;;;;25.80;92.80;;;;;;5065118;28;19920;-64
2022/07/08 14:03:25;;;;;;;;;;;25.10;92.80;;;;;;5070503;28;19912;-64
2022/07/08 14:05:50;;;;;;;;;;;24.70;93.50;;;;;;5075268;28;19927;-65
2022/07/08 14:08:16;;;;;;;;;;;25.20;93.80;;;;;;5070435;28;20271;-65
2022/07/08 14:10:41;;;;;;;;;;;26.20;92.40;;;;;;5049224;28;19920;-64
2022/07/08 14:13:07;;;;;;;;;;;25.80;92.50;;;;;;5050065;28;19908;-64